createdAt,value
2023-02-07T00:01:00.646Z,101558.95
2023-02-07T00:04:12.277Z,101558.66
2023-02-07T00:07:14.911Z,101560.60
2023-02-07T00:10:17.564Z,101566.64
2023-02-07T00:13:20.342Z,101561.64
2023-02-07T00:16:25.612Z,101560.42
2023-02-07T00:19:28.573Z,101555.08
2023-02-07T00:22:31.638Z,101546.80
2023-02-07T00:25:34.439Z,101545.46
2023-02-07T00:28:37.361Z,101530.98
2023-02-07T00:31:40.556Z,101520.68
2023-02-07T00:34:46.103Z,101516.27
2023-02-07T00:37:50.521Z,101509.06
2023-02-07T00:40:53.242Z,101510.44
2023-02-07T00:43:56.061Z,101507.48
2023-02-07T00:46:59.477Z,101502.88
2023-02-07T00:50:02.339Z,101491.85
2023-02-07T00:53:05.520Z,101484.83
2023-02-07T00:56:08.825Z,101481.70
2023-02-07T00:59:14.200Z,101483.75
2023-02-07T01:02:16.936Z,101489.89
2023-02-07T01:05:19.632Z,101488.58
2023-02-07T01:08:22.319Z,101492.79
2023-02-07T01:11:25.422Z,101491.02
2023-02-07T01:14:28.124Z,101491.92
2023-02-07T01:17:30.932Z,101480.76
2023-02-07T01:20:33.676Z,101471.76
2023-02-07T01:23:36.296Z,101465.51
2023-02-07T01:26:39.736Z,101460.05
2023-02-07T01:29:43.077Z,101458.58
2023-02-07T01:32:45.769Z,101462.64
2023-02-07T01:35:50.724Z,101463.92
2023-02-07T01:38:54.072Z,101461.75
2023-02-07T01:41:56.827Z,101474.29
2023-02-07T01:45:05.308Z,101473.15
2023-02-07T01:48:16.600Z,101476.33
2023-02-07T01:51:20.579Z,101477.27
2023-02-07T01:54:23.450Z,101471.50
2023-02-07T01:57:27.569Z,101472.86
2023-02-07T02:00:30.748Z,101473.93
2023-02-07T02:03:35.722Z,101468.53
2023-02-07T02:06:40.285Z,101460.40
2023-02-07T02:09:46.029Z,101459.25
2023-02-07T02:13:03.170Z,101458.29
2023-02-07T02:16:07.863Z,101458.45
2023-02-07T02:19:29.717Z,101452.17
2023-02-07T02:22:35.208Z,101466.98
2023-02-07T02:25:46.455Z,101473.13
2023-02-07T02:29:18.713Z,101475.16
2023-02-07T02:32:39.898Z,101480.41
2023-02-07T02:35:47.894Z,101484.21
2023-02-07T02:39:11.972Z,101478.69
2023-02-07T02:42:16.295Z,101471.54
2023-02-07T02:45:23.096Z,101471.61
2023-02-07T02:48:30.200Z,101476.41
2023-02-07T02:51:32.861Z,101472.25
2023-02-07T02:54:36.980Z,101469.74
2023-02-07T02:57:57.282Z,101472.34
2023-02-07T03:01:38.777Z,101473.70
2023-02-07T03:04:44.204Z,101477.52
2023-02-07T03:08:03.557Z,101477.81
2023-02-07T03:11:14.466Z,101473.83
2023-02-07T03:14:26.841Z,101474.41
2023-02-07T03:17:49.437Z,101476.65
2023-02-07T03:20:56.283Z,101480.05
2023-02-07T03:24:00.812Z,101482.77
2023-02-07T03:27:06.338Z,101483.23
2023-02-07T03:30:11.800Z,101478.78
2023-02-07T03:33:14.853Z,101479.79
2023-02-07T03:36:32.197Z,101477.56
2023-02-07T03:39:35.030Z,101477.23
2023-02-07T03:42:40.198Z,101485.44
2023-02-07T03:45:42.961Z,101479.15
2023-02-07T03:48:45.579Z,101481.13
2023-02-07T03:51:48.819Z,101478.44
2023-02-07T03:54:51.459Z,101477.66
2023-02-07T03:57:54.169Z,101478.41
2023-02-07T04:00:56.997Z,101475.21
2023-02-07T04:03:59.820Z,101474.62
2023-02-07T04:07:02.592Z,101470.41
2023-02-07T04:10:06.093Z,101472.23
2023-02-07T04:13:08.768Z,101472.73
2023-02-07T04:16:13.462Z,101469.84
2023-02-07T04:19:16.612Z,101475.43
2023-02-07T04:22:19.638Z,101468.40
2023-02-07T04:25:24.560Z,101462.38
2023-02-07T04:28:27.367Z,101457.74
2023-02-07T04:31:30.100Z,101453.00
2023-02-07T04:34:32.770Z,101444.92
2023-02-07T04:37:35.559Z,101444.13
2023-02-07T04:40:39.055Z,101449.63
2023-02-07T04:43:42.441Z,101453.80
2023-02-07T04:46:45.096Z,101453.46
2023-02-07T04:49:47.996Z,101454.86
2023-02-07T04:52:50.680Z,101458.48
2023-02-07T04:55:56.629Z,101466.34
2023-02-07T04:58:59.392Z,101463.65
2023-02-07T05:02:02.008Z,101461.94
2023-02-07T05:05:04.826Z,101461.34
2023-02-07T05:08:07.664Z,101463.08
2023-02-07T05:11:10.823Z,101460.16
2023-02-07T05:14:16.108Z,101469.80
2023-02-07T05:17:18.727Z,101471.11
2023-02-07T05:20:21.363Z,101473.20
2023-02-07T05:23:24.424Z,101479.59
2023-02-07T05:26:27.145Z,101483.07
2023-02-07T05:29:29.796Z,101482.63
2023-02-07T05:32:51.065Z,101485.73
2023-02-07T05:35:53.787Z,101480.25
2023-02-07T05:38:56.568Z,101480.38
2023-02-07T05:41:59.221Z,101484.01
2023-02-07T05:45:01.885Z,101481.17
2023-02-07T05:48:04.629Z,101489.89
2023-02-07T05:51:07.314Z,101499.64
2023-02-07T05:54:09.926Z,101497.29
2023-02-07T05:57:12.592Z,101500.10
2023-02-07T06:00:16.815Z,101499.57
2023-02-07T06:03:20.737Z,101504.96
2023-02-07T06:06:23.376Z,101504.40
2023-02-07T06:09:25.988Z,101508.60
2023-02-07T06:12:28.702Z,101509.39
2023-02-07T06:15:31.372Z,101511.45
2023-02-07T06:18:34.005Z,101516.55
2023-02-07T06:21:46.025Z,101520.04
2023-02-07T06:24:49.540Z,101523.33
2023-02-07T06:27:52.246Z,101527.90
2023-02-07T06:30:54.974Z,101526.07
2023-02-07T06:33:58.837Z,101529.14
2023-02-07T06:37:01.576Z,101527.14
2023-02-07T06:40:06.677Z,101522.30
2023-02-07T06:43:09.901Z,101514.56
2023-02-07T06:46:12.691Z,101512.04
2023-02-07T06:49:16.633Z,101512.73
2023-02-07T06:52:20.159Z,101508.30
2023-02-07T06:55:22.764Z,101508.27
2023-02-07T06:58:25.829Z,101516.31
2023-02-07T07:01:28.575Z,101522.38
2023-02-07T07:04:33.740Z,101518.94
2023-02-07T07:07:36.630Z,101519.56
2023-02-07T07:10:39.290Z,101529.23
2023-02-07T07:13:42.057Z,101529.99
2023-02-07T07:16:44.739Z,101523.72
2023-02-07T07:19:47.429Z,101526.77
2023-02-07T07:22:50.131Z,101527.95
2023-02-07T07:25:52.899Z,101527.70
2023-02-07T07:28:58.389Z,101523.55
2023-02-07T07:32:01.141Z,101519.55
2023-02-07T07:35:07.280Z,101523.77
2023-02-07T07:38:09.904Z,101524.36
2023-02-07T07:41:12.538Z,101522.32
2023-02-07T07:44:15.212Z,101526.56
2023-02-07T07:47:19.192Z,101523.77
2023-02-07T07:50:21.859Z,101525.64
2023-02-07T07:53:24.903Z,101520.23
2023-02-07T07:56:29.604Z,101525.54
2023-02-07T07:59:32.268Z,101527.27
2023-02-07T08:02:34.955Z,101526.50
2023-02-07T08:05:37.821Z,101522.17
2023-02-07T08:08:40.680Z,101519.54
2023-02-07T08:11:43.410Z,101523.89
2023-02-07T08:14:46.163Z,101526.11
2023-02-07T08:17:51.273Z,101531.48
2023-02-07T08:20:56.517Z,101529.97
2023-02-07T08:23:59.312Z,101540.27
2023-02-07T08:27:02.680Z,101545.14
2023-02-07T08:30:06.845Z,101546.48
2023-02-07T08:33:09.503Z,101546.95
2023-02-07T08:36:13.026Z,101552.81
2023-02-07T08:39:19.066Z,101554.17
2023-02-07T08:42:22.431Z,101557.09
2023-02-07T08:45:25.587Z,101559.55
2023-02-07T08:48:28.469Z,101564.60
2023-02-07T08:51:31.109Z,101564.80
2023-02-07T08:54:52.360Z,101568.52
2023-02-07T08:57:55.123Z,101571.63
2023-02-07T09:00:57.810Z,101573.23
2023-02-07T09:04:00.443Z,101575.20
2023-02-07T09:07:03.094Z,101575.96
2023-02-07T09:10:07.047Z,101579.47
2023-02-07T09:13:09.814Z,101584.24
2023-02-07T09:16:20.800Z,101583.17
2023-02-07T09:19:23.593Z,101580.79
2023-02-07T09:22:26.528Z,101578.86
2023-02-07T09:25:29.148Z,101574.28
2023-02-07T09:28:31.983Z,101572.94
2023-02-07T09:31:34.861Z,101570.45
2023-02-07T09:34:38.035Z,101569.83
2023-02-07T09:37:49.409Z,101563.42
2023-02-07T09:40:53.659Z,101563.73
2023-02-07T09:44:14.307Z,101560.48
2023-02-07T09:47:22.451Z,101554.77
2023-02-07T09:50:34.552Z,101549.08
2023-02-07T09:53:45.004Z,101546.25
2023-02-07T09:56:49.872Z,101537.90
2023-02-07T10:00:02.746Z,101538.45
2023-02-07T10:03:21.133Z,101537.20
2023-02-07T10:06:27.326Z,101533.18
2023-02-07T10:09:36.576Z,101524.27
2023-02-07T10:12:39.201Z,101524.19
2023-02-07T10:15:41.805Z,101515.98
2023-02-07T10:18:47.611Z,101512.13
2023-02-07T10:21:54.787Z,101513.91
2023-02-07T10:25:16.382Z,101515.73
2023-02-07T10:28:19.085Z,101505.44
2023-02-07T10:31:23.937Z,101504.06
2023-02-07T10:34:35.795Z,101504.35
2023-02-07T10:37:39.275Z,101494.47
2023-02-07T10:40:48.767Z,101491.12
2023-02-07T10:43:53.115Z,101490.34
2023-02-07T10:46:58.615Z,101488.58
2023-02-07T10:50:04.048Z,101490.86
2023-02-07T10:53:06.717Z,101490.68
2023-02-07T10:56:20.094Z,101491.47
2023-02-07T10:59:39.186Z,101488.59
2023-02-07T11:02:49.741Z,101492.38
2023-02-07T11:05:57.295Z,101485.05
2023-02-07T11:09:13.873Z,101479.89
2023-02-07T11:12:23.573Z,101482.12
2023-02-07T11:15:46.140Z,101487.23
2023-02-07T11:18:59.997Z,101491.82
2023-02-07T11:22:19.153Z,101492.87
2023-02-07T11:25:29.711Z,101486.98
2023-02-07T11:28:34.670Z,101492.11
2023-02-07T11:31:39.425Z,101488.45
2023-02-07T11:34:55.098Z,101491.11
2023-02-07T11:38:03.670Z,101485.16
2023-02-07T11:41:16.546Z,101486.20
2023-02-07T11:44:19.229Z,101484.84
2023-02-07T11:47:24.407Z,101483.17
2023-02-07T11:50:41.085Z,101478.15
2023-02-07T11:53:54.054Z,101470.48
2023-02-07T11:57:16.676Z,101467.55
2023-02-07T12:00:23.836Z,101470.75
2023-02-07T12:03:27.871Z,101466.05
2023-02-07T12:06:33.352Z,101467.23
2023-02-07T12:09:41.023Z,101468.98
2023-02-07T12:12:46.779Z,101468.02
2023-02-07T12:15:52.904Z,101470.48
2023-02-07T12:19:14.396Z,101466.48
2023-02-07T12:22:20.126Z,101472.24
2023-02-07T12:25:24.849Z,101475.53
2023-02-07T12:28:31.841Z,101478.81
2023-02-07T12:31:42.526Z,101473.28
2023-02-07T12:34:49.724Z,101470.45
2023-02-07T12:38:01.680Z,101475.09
2023-02-07T12:41:17.054Z,101469.98
2023-02-07T12:44:25.632Z,101464.39
2023-02-07T12:47:34.013Z,101468.65
2023-02-07T12:51:02.645Z,101470.64
2023-02-07T12:54:17.452Z,101465.25
2023-02-07T12:57:23.000Z,101465.27
2023-02-07T13:00:42.619Z,101466.00
2023-02-07T13:04:03.976Z,101463.95
2023-02-07T13:07:06.570Z,101460.07
2023-02-07T13:10:15.273Z,101461.94
2023-02-07T13:13:24.810Z,101462.13
2023-02-07T13:16:38.604Z,101461.25
2023-02-07T13:20:07.677Z,101456.17
2023-02-07T13:23:19.137Z,101456.48
2023-02-07T13:26:26.627Z,101453.13
2023-02-07T13:29:31.828Z,101452.66
2023-02-07T13:32:34.549Z,101457.35
2023-02-07T13:35:52.447Z,101460.17
2023-02-07T13:39:01.042Z,101461.42
2023-02-07T13:42:17.927Z,101459.11
2023-02-07T13:45:28.795Z,101456.32
2023-02-07T13:48:35.360Z,101453.02
2023-02-07T13:51:50.675Z,101454.40
2023-02-07T13:54:56.337Z,101456.54
2023-02-07T13:58:17.618Z,101456.39
2023-02-07T14:01:24.891Z,101454.17
2023-02-07T14:04:45.660Z,101453.95
2023-02-07T14:07:55.521Z,101465.39
2023-02-07T14:10:59.218Z,101466.98
2023-02-07T14:14:25.621Z,101474.23
2023-02-07T14:17:29.724Z,101468.33
2023-02-07T14:20:40.605Z,101474.00
2023-02-07T14:24:02.513Z,101475.10
2023-02-07T14:27:05.929Z,101481.73
2023-02-07T14:30:18.996Z,101482.63
2023-02-07T14:33:22.491Z,101487.50
2023-02-07T14:36:26.108Z,101493.52
2023-02-07T14:39:33.058Z,101497.25
2023-02-07T14:42:36.494Z,101501.19
2023-02-07T14:45:40.746Z,101508.57
2023-02-07T14:48:43.434Z,101506.42
2023-02-07T14:51:59.658Z,101506.83
2023-02-07T14:55:08.835Z,101505.05
2023-02-07T14:58:37.693Z,101511.83
2023-02-07T15:01:40.411Z,101517.41
2023-02-07T15:04:43.742Z,101515.66
2023-02-07T15:07:47.473Z,101519.88
2023-02-07T15:10:53.659Z,101523.98
2023-02-07T15:13:59.778Z,101521.95
2023-02-07T15:17:03.565Z,101523.79
2023-02-07T15:20:06.646Z,101532.41
2023-02-07T15:23:16.341Z,101534.53
2023-02-07T15:26:20.135Z,101538.32
2023-02-07T15:29:25.546Z,101538.38
2023-02-07T15:32:31.185Z,101539.82
2023-02-07T15:35:39.482Z,101543.24
2023-02-07T15:38:42.442Z,101546.55
2023-02-07T15:41:45.956Z,101546.05
2023-02-07T15:44:53.199Z,101553.11
2023-02-07T15:48:03.128Z,101557.11
2023-02-07T15:51:06.136Z,101556.79
2023-02-07T15:54:15.643Z,101557.90
2023-02-07T15:57:30.789Z,101558.11
2023-02-07T16:00:40.489Z,101567.89
2023-02-07T16:03:44.917Z,101572.05
2023-02-07T16:07:23.284Z,101576.30
2023-02-07T16:10:35.962Z,101574.13
2023-02-07T16:13:58.858Z,101575.27
2023-02-07T16:17:01.856Z,101573.65
2023-02-07T16:20:04.925Z,101582.36
2023-02-07T16:23:09.443Z,101579.04
2023-02-07T16:26:14.345Z,101586.16
2023-02-07T16:29:23.307Z,101591.10
2023-02-07T16:32:28.134Z,101588.45
2023-02-07T16:35:30.798Z,101592.00
2023-02-07T16:38:34.652Z,101597.09
2023-02-07T16:41:41.535Z,101601.27
2023-02-07T16:44:45.447Z,101603.22
2023-02-07T16:47:48.330Z,101601.44
2023-02-07T16:50:50.994Z,101601.15
2023-02-07T16:54:18.088Z,101597.20
2023-02-07T16:57:27.410Z,101595.21
2023-02-07T17:00:32.330Z,101589.14
2023-02-07T17:03:35.112Z,101595.77
2023-02-07T17:06:38.396Z,101594.98
2023-02-07T17:09:41.119Z,101606.17
2023-02-07T17:12:43.713Z,101605.73
2023-02-07T17:15:48.342Z,101604.77
2023-02-07T17:18:51.656Z,101603.83
2023-02-07T17:21:54.437Z,101612.98
2023-02-07T17:24:59.660Z,101616.70
2023-02-07T17:28:02.500Z,101623.45
2023-02-07T17:31:05.388Z,101622.31
2023-02-07T17:34:08.610Z,101625.10
2023-02-07T17:37:12.188Z,101632.31
2023-02-07T17:40:23.611Z,101633.45
2023-02-07T17:43:26.326Z,101633.04
2023-02-07T17:46:29.062Z,101635.08
2023-02-07T17:49:31.730Z,101633.77
2023-02-07T17:52:35.033Z,101637.38
2023-02-07T17:55:38.153Z,101637.23
2023-02-07T17:58:40.903Z,101637.08
2023-02-07T18:01:43.605Z,101639.86
2023-02-07T18:04:46.295Z,101642.30
2023-02-07T18:07:51.634Z,101641.69
2023-02-07T18:10:55.199Z,101642.38
2023-02-07T18:13:57.894Z,101647.30
2023-02-07T18:17:00.534Z,101645.84
2023-02-07T18:20:04.734Z,101654.84
2023-02-07T18:23:07.593Z,101662.06
2023-02-07T18:26:15.173Z,101663.04
2023-02-07T18:29:18.106Z,101669.05
2023-02-07T18:32:20.884Z,101666.85
2023-02-07T18:35:23.663Z,101668.80
2023-02-07T18:38:26.389Z,101670.04
2023-02-07T18:41:29.024Z,101676.02
2023-02-07T18:44:31.992Z,101674.62
2023-02-07T18:47:34.627Z,101684.17
2023-02-07T18:50:41.694Z,101679.48
2023-02-07T18:53:44.610Z,101673.45
2023-02-07T18:56:52.498Z,101675.89
2023-02-07T18:59:55.199Z,101674.16
2023-02-07T19:02:57.908Z,101670.77
2023-02-07T19:06:01.749Z,101668.98
2023-02-07T19:09:04.419Z,101671.66
2023-02-07T19:12:09.244Z,101672.61
2023-02-07T19:15:12.640Z,101671.08
2023-02-07T19:18:15.411Z,101672.23
2023-02-07T19:21:26.167Z,101672.46
2023-02-07T19:24:28.914Z,101675.08
2023-02-07T19:27:31.665Z,101679.91
2023-02-07T19:30:39.064Z,101676.12
2023-02-07T19:33:42.015Z,101677.99
2023-02-07T19:36:44.948Z,101676.30
2023-02-07T19:39:49.150Z,101674.50
2023-02-07T19:42:51.839Z,101679.78
2023-02-07T19:45:54.622Z,101680.59
2023-02-07T19:49:00.268Z,101678.07
2023-02-07T19:52:02.963Z,101674.19
2023-02-07T19:55:05.792Z,101668.15
2023-02-07T19:58:08.595Z,101669.20
2023-02-07T20:01:11.673Z,101673.70
2023-02-07T20:04:14.376Z,101672.50
2023-02-07T20:07:17.164Z,101670.73
2023-02-07T20:10:20.219Z,101672.81
2023-02-07T20:13:22.825Z,101672.48
2023-02-07T20:16:26.723Z,101674.55
2023-02-07T20:19:29.617Z,101673.14
2023-02-07T20:22:32.746Z,101677.99
2023-02-07T20:25:39.252Z,101674.91
2023-02-07T20:28:41.905Z,101672.88
2023-02-07T20:31:46.097Z,101675.36
2023-02-07T20:34:48.932Z,101677.27
2023-02-07T20:37:51.740Z,101678.30
2023-02-07T20:40:56.525Z,101680.14
2023-02-07T20:44:03.635Z,101676.73
2023-02-07T20:47:09.669Z,101681.90
2023-02-07T20:50:12.411Z,101681.58
2023-02-07T20:53:15.057Z,101690.96
2023-02-07T20:56:18.122Z,101700.11
2023-02-07T20:59:25.248Z,101709.38
2023-02-07T21:02:27.961Z,101715.80
2023-02-07T21:05:33.340Z,101713.24
2023-02-07T21:08:36.397Z,101719.89
2023-02-07T21:11:41.596Z,101727.80
2023-02-07T21:14:44.319Z,101728.44
2023-02-07T21:17:46.983Z,101725.67
2023-02-07T21:20:50.112Z,101729.08
2023-02-07T21:23:54.731Z,101728.22
2023-02-07T21:26:57.886Z,101731.42
2023-02-07T21:30:00.725Z,101727.86
2023-02-07T21:33:04.224Z,101731.01
2023-02-07T21:36:09.388Z,101737.75
2023-02-07T21:39:12.732Z,101738.61
2023-02-07T21:42:15.623Z,101742.45
2023-02-07T21:45:18.694Z,101741.73
2023-02-07T21:48:22.388Z,101746.14
2023-02-07T21:51:25.966Z,101750.31
2023-02-07T21:54:28.785Z,101749.34
2023-02-07T21:57:31.484Z,101750.96
2023-02-07T22:00:34.102Z,101750.17
2023-02-07T22:03:37.913Z,101745.73
2023-02-07T22:06:42.290Z,101742.21
2023-02-07T22:09:45.031Z,101742.61
2023-02-07T22:12:47.642Z,101745.80
2023-02-07T22:15:51.022Z,101742.05
2023-02-07T22:18:54.644Z,101743.04
2023-02-07T22:21:58.966Z,101740.46
2023-02-07T22:25:01.893Z,101740.40
2023-02-07T22:28:04.695Z,101741.14
2023-02-07T22:31:11.386Z,101740.33
2023-02-07T22:34:15.491Z,101740.95
2023-02-07T22:37:18.152Z,101745.27
2023-02-07T22:40:20.841Z,101744.33
2023-02-07T22:43:23.595Z,101748.95
2023-02-07T22:46:26.267Z,101750.06
2023-02-07T22:49:29.043Z,101747.80
2023-02-07T22:52:33.197Z,101752.84
2023-02-07T22:55:36.007Z,101750.55
2023-02-07T22:58:39.871Z,101749.48
2023-02-07T23:01:42.996Z,101748.45
2023-02-07T23:04:45.646Z,101753.73
2023-02-07T23:07:48.453Z,101759.38
2023-02-07T23:10:51.113Z,101762.02
2023-02-07T23:13:54.118Z,101760.42
2023-02-07T23:16:56.772Z,101765.81
2023-02-07T23:19:59.401Z,101768.23
2023-02-07T23:23:02.094Z,101767.59
2023-02-07T23:26:08.892Z,101766.23
2023-02-07T23:29:11.520Z,101765.64
2023-02-07T23:32:16.463Z,101767.45
2023-02-07T23:35:19.172Z,101769.09
2023-02-07T23:38:21.836Z,101764.34
2023-02-07T23:41:24.523Z,101769.50
2023-02-07T23:44:27.188Z,101773.89
2023-02-07T23:47:29.867Z,101769.53
2023-02-07T23:50:32.755Z,101768.78
2023-02-07T23:53:35.516Z,101768.93
2023-02-07T23:56:38.494Z,101769.39
2023-02-07T23:59:41.134Z,101772.19
